Latest Weather Observations for South Channel Island

IDV60901

Issued at 6:51 pm EST Monday 20 May 2019 (issued every 10 minutes, with the page automatically refreshed every 10 minutes)

About weather observations | Map of Melbourne area stations | Latest observations for Melbourne area | Other Formats
Station Details ID: 086344 Name: SOUTH CHANNEL ISLAND Lat: -38.31 Lon: 144.80 Height: 9.0 m
Data from the previous 72 hours. | See also: Recent months at South Channel Island
Date/Time
EST
Temp
°C
App
Temp
°C
Dew
Point
°C
Rel
Hum
%
Delta-T
°C
Wind Press
QNH
hPa
Press
MSL
hPa
Rain since
9am
mm
Dir  Spd
km/h
Gust
km/h
Spd
kts
Gust
kts
20/06:30pm - - - - - N 33 41 18 22 - - -
20/06:00pm - - - - - N 39 46 21 25 - - -
20/05:30pm - - - - - N 39 46 21 25 - - -
20/05:00pm - - - - - N 37 43 20 23 - - -
20/04:30pm - - - - - N 39 46 21 25 - - -
20/04:00pm - - - - - N 35 41 19 22 - - -
20/03:30pm - - - - - N 39 44 21 24 - - -
20/03:00pm - - - - - N 37 43 20 23 - - -
20/02:30pm - - - - - N 35 41 19 22 - - -
20/02:00pm - - - - - N 37 43 20 23 - - -
20/01:30pm - - - - - N 39 44 21 24 - - -
20/01:00pm - - - - - N 39 50 21 27 - - -
20/12:30pm - - - - - N 41 50 22 27 - - -
20/12:00pm - - - - - N 41 48 22 26 - - -
20/11:30am - - - - - N 43 50 23 27 - - -
20/11:00am - - - - - N 39 46 21 25 - - -
20/10:30am - - - - - N 37 46 20 25 - - -
20/10:00am - - - - - N 39 50 21 27 - - -
20/09:30am - - - - - N 46 54 25 29 - - -
20/09:00am - - - - - N 46 56 25 30 - - -
20/08:30am - - - - - N 43 50 23 27 - - -
20/08:21am - - - - - N 41 50 22 27 - - -
20/08:00am - - - - - NNE 26 32 14 17 - - -
20/07:30am - - - - - NE 30 32 16 17 - - -
20/07:00am - - - - - NE 20 26 11 14 - - -
20/06:30am - - - - - NE 24 28 13 15 - - -
20/06:00am - - - - - NNE 24 28 13 15 - - -
20/05:30am - - - - - NE 28 30 15 16 - - -
20/05:00am - - - - - NE 20 22 11 12 - - -
20/04:30am - - - - - NE 24 26 13 14 - - -
20/04:00am - - - - - NE 22 26 12 14 - - -
20/03:30am - - - - - NNE 28 30 15 16 - - -
20/03:00am - - - - - NNE 24 28 13 15 - - -
20/02:30am - - - - - NE 22 26 12 14 - - -
20/02:00am - - - - - NNE 20 24 11 13 - - -
20/01:30am - - - - - NNE 17 19 9 10 - - -
20/01:00am - - - - - NNE 19 20 10 11 - - -
20/12:30am - - - - - NNE 19 22 10 12 - - -
20/12:00am - - - - - NNE 28 32 15 17 - - -
 
Date/Time
EST
Temp
°C
App
Temp
°C
Dew
Point
°C
Rel
Hum
%
Delta-T
°C
Wind Press
QNH
hPa
Press
MSL
hPa
Rain since
9am
mm
Dir  Spd
km/h
Gust
km/h
Spd
kts
Gust
kts
19/11:30pm - - - - - NNE 28 32 15 17 - - -
19/11:00pm - - - - - NNE 28 32 15 17 - - -
19/10:30pm - - - - - NNE 28 32 15 17 - - -
19/10:00pm - - - - - NNE 28 32 15 17 - - -
19/09:30pm - - - - - NNE 28 32 15 17 - - -
19/09:00pm - - - - - NNE 28 32 15 17 - - -
19/08:30pm - - - - - N 30 32 16 17 - - -
19/08:00pm - - - - - N 30 32 16 17 - - -
19/07:30pm - - - - - NNE 24 28 13 15 - - -
19/07:00pm - - - - - NNE 28 30 15 16 - - -
19/06:30pm - - - - - NE 24 26 13 14 - - -
19/06:00pm - - - - - NNE 30 33 16 18 - - -
19/05:30pm - - - - - NNE 30 32 16 17 - - -
19/05:00pm - - - - - N 33 35 18 19 - - -
19/04:30pm - - - - - N 33 35 18 19 - - -
19/04:00pm - - - - - N 32 33 17 18 - - -
19/03:30pm - - - - - NNE 30 32 16 17 - - -
19/03:00pm - - - - - NNE 32 35 17 19 - - -
19/02:30pm - - - - - N 32 37 17 20 - - -
19/02:00pm - - - - - NNE 19 22 10 12 - - -
19/01:30pm - - - - - NE 20 24 11 13 - - -
19/01:00pm - - - - - NE 22 28 12 15 - - -
19/12:30pm - - - - - ENE 20 24 11 13 - - -
19/12:00pm - - - - - NE 19 24 10 13 - - -
19/11:30am - - - - - NE 19 22 10 12 - - -
19/11:00am - - - - - NE 24 28 13 15 - - -
19/10:30am - - - - - NE 24 28 13 15 - - -
19/10:00am - - - - - NNE 28 32 15 17 - - -
19/09:30am - - - - - NE 22 26 12 14 - - -
19/09:00am - - - - - NE 22 26 12 14 - - -
19/08:30am - - - - - NE 20 22 11 12 - - -
19/08:00am - - - - - NE 17 19 9 10 - - -
19/07:30am - - - - - NE 17 17 9 9 - - -
19/07:00am - - - - - NE 17 17 9 9 - - -
19/06:30am - - - - - NE 17 19 9 10 - - -
19/06:00am - - - - - NE 15 17 8 9 - - -
19/05:30am - - - - - NNE 17 19 9 10 - - -
19/05:00am - - - - - NNE 17 19 9 10 - - -
19/04:30am - - - - - NNE 20 22 11 12 - - -
19/04:00am - - - - - NE 19 22 10 12 - - -
19/03:30am - - - - - NE 20 22 11 12 - - -
19/03:00am - - - - - NNE 19 26 10 14 - - -
19/02:30am - - - - - NNE 22 26 12 14 - - -
19/02:00am - - - - - NE 24 28 13 15 - - -
19/01:30am - - - - - NE 24 26 13 14 - - -
19/01:00am - - - - - ENE 22 26 12 14 - - -
19/12:30am - - - - - ENE 22 26 12 14 - - -
19/12:00am - - - - - E 15 17 8 9 - - -
 
Date/Time
EST
Temp
°C
App
Temp
°C
Dew
Point
°C
Rel
Hum
%
Delta-T
°C
Wind Press
QNH
hPa
Press
MSL
hPa
Rain since
9am
mm
Dir  Spd
km/h
Gust
km/h
Spd
kts
Gust
kts
18/11:30pm - - - - - ENE 15 17 8 9 - - -
18/11:00pm - - - - - ENE 13 15 7 8 - - -
18/10:30pm - - - - - ENE 11 15 6 8 - - -
18/10:00pm - - - - - E 6 9 3 5 - - -
18/09:30pm - - - - - SSE 11 15 6 8 - - -
18/09:00pm - - - - - E 15 17 8 9 - - -
18/08:30pm - - - - - ENE 19 22 10 12 - - -
18/08:00pm - - - - - E 19 24 10 13 - - -
18/07:30pm - - - - - ENE 17 22 9 12 - - -
18/07:00pm - - - - - ENE 13 15 7 8 - - -
18/06:30pm - - - - - ESE 22 26 12 14 - - -
18/06:00pm - - - - - SE 30 35 16 19 - - -
18/05:30pm - - - - - SE 28 32 15 17 - - -
18/05:00pm - - - - - SE 30 33 16 18 - - -
18/04:59pm - - - - - SE 30 33 16 18 - - -
18/04:30pm - - - - - SSE 13 15 7 8 - - -
18/04:00pm - - - - - S 11 13 6 7 - - -
18/03:30pm - - - - - S 9 11 5 6 - - -
18/03:00pm - - - - - E 4 7 2 4 - - -
18/02:30pm - - - - - E 7 9 4 5 - - -
18/02:00pm - - - - - E 9 11 5 6 - - -
18/01:30pm - - - - - ENE 9 9 5 5 - - -
18/01:00pm - - - - - NE 7 9 4 5 - - -
18/12:30pm - - - - - N 9 11 5 6 - - -
18/12:00pm - - - - - N 13 15 7 8 - - -
18/11:30am - - - - - N 11 13 6 7 - - -
18/11:00am - - - - - N 13 15 7 8 - - -
18/10:30am - - - - - N 15 19 8 10 - - -
18/10:00am - - - - - N 15 17 8 9 - - -
18/09:30am - - - - - N 11 13 6 7 - - -
18/09:00am - - - - - N 11 13 6 7 - - -
18/08:30am - - - - - N 13 15 7 8 - - -
18/08:00am - - - - - N 13 15 7 8 - - -
18/07:30am - - - - - N 11 13 6 7 - - -
18/07:00am - - - - - N 15 17 8 9 - - -
18/06:30am - - - - - N 15 19 8 10 - - -
18/06:00am - - - - - NNE 15 17 8 9 - - -
18/05:30am - - - - - NNE 17 19 9 10 - - -
18/05:00am - - - - - NNE 17 19 9 10 - - -
18/04:30am - - - - - NE 17 19 9 10 - - -
18/04:00am - - - - - ENE 13 17 7 9 - - -
18/03:30am - - - - - NE 17 17 9 9 - - -
18/03:00am - - - - - NE 15 17 8 9 - - -
18/02:30am - - - - - ENE 15 17 8 9 - - -
18/02:00am - - - - - E 7 11 4 6 - - -
18/01:30am - - - - - E 7 7 4 4 - - -
18/01:00am - - - - - SE 7 9 4 5 - - -
18/12:30am - - - - - ESE 9 11 5 6 - - -
18/12:00am - - - - - ESE 6 7 3 4 - - -
 
Date/Time
EST
Temp
°C
App
Temp
°C
Dew
Point
°C
Rel
Hum
%
Delta-T
°C
Wind Press
QNH
hPa
Press
MSL
hPa
Rain since
9am
mm
Dir  Spd
km/h
Gust
km/h
Spd
kts
Gust
kts
17/11:30pm - - - - - ESE 7 7 4 4 - - -
17/11:00pm - - - - - ESE 9 11 5 6 - - -
17/10:30pm - - - - - ENE 9 11 5 6 - - -
17/10:00pm - - - - - ENE 9 11 5 6 - - -
17/09:30pm - - - - - ENE 7 9 4 5 - - -
17/09:00pm - - - - - NE 9 11 5 6 - - -
17/08:30pm - - - - - E 11 13 6 7 - - -
17/08:00pm - - - - - ESE 11 11 6 6 - - -
17/07:30pm - - - - - SE 13 15 7 8 - - -
17/07:00pm - - - - - SE 15 15 8 8 - - -

Latest Capital City Observations: Canberra | Sydney | Melbourne | Brisbane | Adelaide | Perth | Hobart | Darwin

Other formats

Comma delimited format used in spreadsheet applications
http://www.bom.gov.au/fwo/IDV60901/IDV60901.94853.axf

JavaScript Object Notation format (JSON) in row-major order
http://www.bom.gov.au/fwo/IDV60901/IDV60901.94853.json

Data quality

Most of these data are generated automatically and are frequently updated. Quality checks on data are not normally performed. It is possible for incorrect values to appear. Refer to information at About Latest Weather Observations and please check the disclaimer before using these data.